Time;durP1;ratioP1;P1;durP2;ratioP2;P2;SDS_P1;SDS_P2;PMS_P1;PMS_P2;Temp;Humidity;BMP_temperature;BMP_pressure;BME280_temperature;BME280_humidity;BME280_pressure;Samples;Min_cycle;Max_cycle;Signal;HPM_P1;HPM_P2
2022/11/28 00:00:00;;;;;;;6.23;3.70;;;5.90;99.90;;;;;;5096658;28;20180;-90
2022/11/28 00:02:25;;;;;;;10.37;4.03;;;5.90;99.90;;;;;;5096592;28;20191;-90
2022/11/28 00:04:52;;;;;;;7.27;3.83;;;5.90;99.90;;;;;;5097330;28;20180;-92
2022/11/28 00:07:18;;;;;;;6.07;3.83;;;5.80;99.90;;;;;;5097410;28;20193;-88
2022/11/28 00:09:44;;;;;;;12.47;4.57;;;5.90;99.90;;;;;;5079027;28;20204;-90
2022/11/28 00:12:09;;;;;;;7.50;4.40;;;5.90;99.90;;;;;;5097191;28;20177;-84
2022/11/28 00:14:35;;;;;;;5.03;3.80;;;5.90;99.90;;;;;;5097006;28;20211;-85
2022/11/28 00:17:01;;;;;;;6.43;3.80;;;5.90;99.90;;;;;;5096779;28;20220;-87
2022/11/28 00:19:27;;;;;;;6.63;4.10;;;5.90;99.90;;;;;;5096584;28;20180;-87
2022/11/28 00:21:53;;;;;;;10.83;4.43;;;5.80;99.90;;;;;;5097046;28;20169;-85
2022/11/28 00:24:19;;;;;;;7.53;3.97;;;5.80;99.90;;;;;;5096832;28;20202;-88
2022/11/28 00:26:45;;;;;;;6.83;4.30;;;5.80;99.90;;;;;;5096664;28;20230;-89
2022/11/28 00:29:11;;;;;;;7.87;3.73;;;5.90;99.90;;;;;;5078645;28;20623;-88
2022/11/28 00:31:41;;;;;;;5.57;3.70;;;5.90;99.90;;;;;;5096572;28;20184;-90
2022/11/28 00:34:08;;;;;;;5.47;4.03;;;5.80;99.90;;;;;;5084774;28;20181;-89
2022/11/28 00:36:34;;;;;;;7.17;3.57;;;5.90;99.90;;;;;;5096414;28;20249;-87
2022/11/28 00:39:00;;;;;;;6.07;4.47;;;5.80;99.90;;;;;;5096638;28;20251;-88
2022/11/28 00:41:29;;;;;;;5.57;4.27;;;5.80;99.90;;;;;;5096377;28;20791;-86
2022/11/28 00:43:55;;;;;;;7.13;3.80;;;5.80;99.90;;;;;;5096564;28;20176;-89
2022/11/28 00:46:23;;;;;;;5.37;3.97;;;5.80;99.90;;;;;;5096386;28;20274;-88
2022/11/28 00:48:49;;;;;;;6.80;3.80;;;5.80;99.90;;;;;;5078211;28;20607;-88
2022/11/28 00:51:17;;;;;;;7.50;3.80;;;5.80;99.90;;;;;;5096347;28;20623;-86
2022/11/28 00:53:46;;;;;;;8.60;3.70;;;5.80;99.90;;;;;;5096077;28;20176;-86
2022/11/28 00:56:21;;;;;;;6.47;4.07;;;5.70;99.90;;;;;;5077776;28;20176;-89
2022/11/28 00:58:48;;;;;;;5.70;3.93;;;5.70;99.90;;;;;;5096237;28;20179;-86
2022/11/28 01:01:39;;;;;;;6.30;4.00;;;5.70;99.90;;;;;;5078007;28;20183;-86
2022/11/28 01:04:08;;;;;;;7.87;3.73;;;5.70;99.90;;;;;;5087303;28;20573;-88
2022/11/28 01:06:47;;;;;;;8.03;4.07;;;5.70;99.90;;;;;;5075835;28;20173;-88
2022/11/28 01:09:16;;;;;;;6.90;3.93;;;5.70;99.90;;;;;;5075632;28;20157;-83
2022/11/28 01:11:43;;;;;;;8.13;3.77;;;5.70;99.90;;;;;;5075926;28;20279;-86
2022/11/28 01:14:10;;;;;;;4.57;3.30;;;5.70;99.90;;;;;;5076007;28;20223;-84
2022/11/28 01:16:36;;;;;;;6.37;3.83;;;5.70;99.90;;;;;;5075053;28;20196;-90
2022/11/28 01:19:02;;;;;;;5.13;3.27;;;5.70;99.90;;;;;;5075071;28;20169;-91
2022/11/28 01:21:28;;;;;;;4.43;3.43;;;5.70;99.90;;;;;;5075617;28;20195;-92
2022/11/28 01:23:54;;;;;;;4.57;3.40;;;5.70;99.90;;;;;;5075562;28;20223;-90
2022/11/28 01:26:29;;;;;;;5.90;3.60;;;5.70;99.90;;;;;;5075435;28;20368;-89
2022/11/28 01:28:56;;;;;;;7.50;3.90;;;5.70;99.90;;;;;;5075496;28;20161;-89
2022/11/28 01:31:24;;;;;;;4.43;3.40;;;5.70;99.90;;;;;;5075386;28;20223;-89
2022/11/28 01:33:51;;;;;;;5.27;3.60;;;5.70;99.90;;;;;;5075110;28;20188;-91
2022/11/28 01:36:24;;;;;;;4.83;3.70;;;5.70;99.90;;;;;;5074897;28;20177;-91
2022/11/28 01:38:50;;;;;;;5.30;3.47;;;5.70;99.90;;;;;;5075579;28;20271;-87
2022/11/28 01:41:18;;;;;;;5.97;3.70;;;5.70;99.90;;;;;;5057321;28;20627;-84
2022/11/28 01:44:26;;;;;;;4.33;3.30;;;5.70;99.90;;;;;;5075319;28;20612;-86
2022/11/28 01:46:52;;;;;;;5.63;3.40;;;5.70;99.90;;;;;;5074865;28;20237;-90
2022/11/28 01:49:25;;;;;;;5.83;3.80;;;5.70;99.90;;;;;;5057338;28;20173;-90
2022/11/28 01:51:59;;;;;;;4.77;3.50;;;5.70;99.90;;;;;;5057468;28;20173;-91
2022/11/28 01:54:25;;;;;;;6.37;3.60;;;5.70;99.90;;;;;;5057346;28;20178;-89
2022/11/28 01:56:57;;;;;;;4.90;3.67;;;5.60;99.90;;;;;;5075115;28;20196;-89
2022/11/28 01:59:27;;;;;;;5.20;3.50;;;5.60;99.90;;;;;;5075255;28;20600;-89
2022/11/28 02:01:53;;;;;;;5.57;3.47;;;5.60;99.90;;;;;;5057446;28;20674;-91
2022/11/28 02:04:19;;;;;;;5.10;3.40;;;5.50;99.90;;;;;;5085182;28;20188;-89
2022/11/28 02:06:54;;;;;;;5.50;3.97;;;5.50;99.90;;;;;;5077130;28;20268;-89
2022/11/28 02:09:20;;;;;;;5.37;3.90;;;5.50;99.90;;;;;;5077169;28;20214;-89
2022/11/28 02:11:51;;;;;;;6.70;4.30;;;5.50;99.90;;;;;;5077097;28;20181;-88
2022/11/28 02:14:48;;;;;;;5.57;3.80;;;5.50;99.90;;;;;;5095097;28;20176;-91
2022/11/28 02:17:52;;;;;;;6.60;3.80;;;5.50;99.90;;;;;;5077009;28;20231;-88
2022/11/28 02:20:26;;;;;;;5.93;3.57;;;5.50;99.90;;;;;;5094312;28;20502;-88
2022/11/28 02:23:11;;;;;;;6.50;4.07;;;5.40;99.90;;;;;;5094920;28;20175;-86
2022/11/28 02:26:30;;;;;;;7.17;4.47;;;5.40;99.90;;;;;;5076957;28;20495;-86
2022/11/28 02:29:19;;;;;;;5.27;3.87;;;5.40;99.90;;;;;;5095186;28;20179;-88
2022/11/28 02:31:57;;;;;;;6.30;4.67;;;5.40;99.90;;;;;;5077097;28;20621;-88
2022/11/28 02:34:32;;;;;;;7.30;4.37;;;5.40;99.90;;;;;;5095009;28;20172;-90
2022/11/28 02:37:07;;;;;;;6.43;4.40;;;5.40;99.90;;;;;;5075975;28;20197;-90
2022/11/28 02:39:46;;;;;;;7.00;4.40;;;5.40;99.90;;;;;;5074369;28;20639;-90
2022/11/28 02:42:29;;;;;;;7.20;4.40;;;5.40;99.90;;;;;;5074680;28;20191;-87
2022/11/28 02:45:08;;;;;;;6.00;4.50;;;5.30;99.90;;;;;;5074861;28;20211;-90
2022/11/28 02:47:53;;;;;;;6.73;4.20;;;5.40;99.90;;;;;;5074972;28;20158;-90
2022/11/28 02:53:14;;;;;;;6.70;4.20;;;5.40;99.90;;;;;;5043287;28;20298;-91
2022/11/28 02:55:42;;;;;;;6.23;4.43;;;5.30;99.90;;;;;;5034286;28;20713;-89
2022/11/28 02:58:10;;;;;;;6.90;4.03;;;5.30;99.90;;;;;;5034128;28;20222;-91
2022/11/28 03:00:38;;;;;;;6.33;4.67;;;5.30;99.90;;;;;;5034193;28;20175;-93
2022/11/28 03:03:14;;;;;;;8.53;4.90;;;5.30;99.90;;;;;;5034527;28;20174;-90
2022/11/28 03:06:09;;;;;;;7.20;4.67;;;5.30;99.90;;;;;;5034589;28;20154;-88
2022/11/28 03:08:52;;;;;;;6.20;4.30;;;5.30;99.90;;;;;;5034263;28;20279;-89
2022/11/28 03:11:51;;;;;;;10.13;5.20;;;5.40;99.90;;;;;;5034578;28;20213;-86
2022/11/28 03:14:35;;;;;;;7.13;4.23;;;5.40;99.90;;;;;;5034474;28;20601;-88
2022/11/28 03:17:08;;;;;;;6.00;4.80;;;5.40;99.90;;;;;;5034421;28;20269;-86
2022/11/28 03:19:38;;;;;;;8.97;4.97;;;5.40;99.90;;;;;;5034537;28;20166;-88
2022/11/28 03:22:27;;;;;;;10.23;5.43;;;5.40;99.90;;;;;;5034078;28;20616;-90
2022/11/28 03:25:02;;;;;;;7.07;4.63;;;5.40;99.90;;;;;;5033639;28;20158;-91
2022/11/28 03:27:47;;;;;;;6.33;4.90;;;5.40;99.90;;;;;;5033881;28;20167;-89
2022/11/28 03:30:43;;;;;;;6.97;5.33;;;5.40;99.90;;;;;;5033703;28;20167;-87
2022/11/28 03:33:13;;;;;;;7.43;4.70;;;5.40;99.90;;;;;;5035967;28;20241;-88
2022/11/28 03:35:46;;;;;;;7.37;4.90;;;5.40;99.90;;;;;;5037264;28;20163;-89
2022/11/28 03:38:25;;;;;;;7.47;4.97;;;5.40;99.90;;;;;;5019377;28;20551;-90
2022/11/28 03:40:55;;;;;;;8.40;4.83;;;5.40;99.90;;;;;;5037100;28;20251;-88
2022/11/28 03:43:26;;;;;;;8.87;5.10;;;5.40;99.90;;;;;;5019240;28;20174;-91
2022/11/28 03:45:57;;;;;;;7.50;5.37;;;5.40;99.90;;;;;;5037165;28;20162;-87
2022/11/28 03:48:47;;;;;;;10.40;4.90;;;5.40;99.90;;;;;;5037217;28;20163;-90
2022/11/28 03:51:44;;;;;;;10.63;5.53;;;5.40;99.90;;;;;;5034473;28;20237;-89
2022/11/28 03:54:18;;;;;;;7.70;5.23;;;5.30;99.90;;;;;;5036715;28;20225;-92
2022/11/28 03:57:03;;;;;;;12.57;5.53;;;5.40;99.90;;;;;;5036996;28;20194;-86
2022/11/28 03:59:31;;;;;;;7.80;5.00;;;5.40;99.90;;;;;;5036880;28;20155;-92
2022/11/28 04:02:14;;;;;;;7.83;4.80;;;5.30;99.90;;;;;;5036600;28;20187;-87
2022/11/28 04:04:55;;;;;;;8.47;4.93;;;5.40;99.90;;;;;;5036709;28;20171;-92
2022/11/28 04:07:33;;;;;;;5.97;4.67;;;5.30;99.90;;;;;;5036596;28;20170;-91
2022/11/28 04:10:02;;;;;;;7.07;4.80;;;5.30;99.90;;;;;;5036509;28;20159;-89
2022/11/28 04:12:46;;;;;;;7.63;5.10;;;5.30;99.90;;;;;;5036322;28;20174;-91
2022/11/28 04:15:26;;;;;;;9.33;5.27;;;5.20;99.90;;;;;;5036359;28;20505;-88
2022/11/28 04:18:42;;;;;;;7.17;5.13;;;5.30;99.90;;;;;;5036267;28;20194;-90
2022/11/28 04:21:21;;;;;;;9.47;5.60;;;5.30;99.90;;;;;;5014678;28;20207;-87
2022/11/28 04:24:00;;;;;;;8.77;5.47;;;5.30;99.90;;;;;;5014850;28;20179;-86
2022/11/28 04:26:40;;;;;;;8.63;5.60;;;5.20;99.90;;;;;;5013560;28;20621;-85
2022/11/28 04:29:10;;;;;;;9.00;5.63;;;5.20;99.90;;;;;;5036579;28;20167;-87
2022/11/28 04:31:39;;;;;;;8.73;5.80;;;5.30;99.90;;;;;;5036458;28;20166;-87
2022/11/28 04:34:16;;;;;;;8.87;5.40;;;5.20;99.90;;;;;;5036578;28;20179;-89
2022/11/28 04:36:44;;;;;;;12.80;6.37;;;5.20;99.90;;;;;;5036323;28;20221;-87
2022/11/28 04:39:18;;;;;;;8.50;5.73;;;5.30;99.90;;;;;;5036435;28;20625;-87
2022/11/28 04:42:32;;;;;;;7.67;5.57;;;5.20;99.90;;;;;;5036283;28;20178;-88
2022/11/28 04:45:07;;;;;;;9.77;6.10;;;5.20;99.90;;;;;;5031819;28;20624;-88
2022/11/28 04:47:33;;;;;;;8.07;5.80;;;5.20;99.90;;;;;;5036416;28;20185;-86
2022/11/28 04:49:59;;;;;;;8.87;5.67;;;5.20;99.90;;;;;;5036297;28;20637;-87
2022/11/28 04:52:46;;;;;;;10.30;6.40;;;5.20;99.90;;;;;;5018253;28;20230;-85
2022/11/28 04:55:38;;;;;;;8.30;6.10;;;5.20;99.90;;;;;;5036121;28;20159;-89
2022/11/28 04:58:12;;;;;;;10.23;6.63;;;5.20;99.90;;;;;;5036195;28;20206;-91
2022/11/28 05:00:39;;;;;;;8.67;6.00;;;5.20;99.90;;;;;;5036032;28;20253;-88
2022/11/28 05:03:06;;;;;;;11.33;5.97;;;5.20;99.90;;;;;;5035697;28;20191;-90
2022/11/28 05:05:45;;;;;;;9.53;5.97;;;5.20;99.90;;;;;;5018470;28;20214;-90
2022/11/28 05:08:11;;;;;;;9.27;5.80;;;5.20;99.90;;;;;;5035495;28;20167;-89
2022/11/28 05:10:36;;;;;;;8.60;5.57;;;5.20;99.90;;;;;;5035626;28;20527;-92
2022/11/28 05:13:09;;;;;;;10.30;6.00;;;5.20;99.90;;;;;;5035965;28;20170;-91
2022/11/28 05:15:35;;;;;;;9.17;5.73;;;5.20;99.90;;;;;;5035075;28;20182;-89
2022/11/28 05:18:01;;;;;;;10.43;5.90;;;5.10;99.90;;;;;;5035531;28;20211;-92
2022/11/28 05:20:27;;;;;;;10.70;6.13;;;5.10;99.90;;;;;;5035437;28;20182;-88
2022/11/28 05:22:53;;;;;;;10.03;6.13;;;5.10;99.90;;;;;;5035087;28;20201;-91
2022/11/28 05:25:19;;;;;;;8.23;5.47;;;5.20;99.90;;;;;;5034638;28;20181;-89
2022/11/28 05:27:45;;;;;;;8.17;5.80;;;5.20;99.90;;;;;;5034735;28;20182;-90
2022/11/28 05:30:12;;;;;;;9.73;6.07;;;5.10;99.90;;;;;;5035338;28;20466;-91
2022/11/28 05:32:37;;;;;;;11.17;6.67;;;5.10;99.90;;;;;;5035512;28;20206;-91
2022/11/28 05:35:06;;;;;;;9.50;5.37;;;5.10;99.90;;;;;;5017857;28;20271;-91
2022/11/28 05:37:32;;;;;;;9.07;6.17;;;5.10;99.90;;;;;;5035657;28;20202;-89
2022/11/28 05:39:58;;;;;;;9.07;6.10;;;5.10;99.90;;;;;;5045357;28;20598;-92
2022/11/28 05:42:24;;;;;;;13.10;5.50;;;5.10;99.90;;;;;;5055403;28;20253;-91
2022/11/28 05:45:04;;;;;;;8.10;5.37;;;5.10;99.90;;;;;;5055415;28;20605;-92
2022/11/28 05:47:31;;;;;;;8.10;5.77;;;5.10;99.90;;;;;;5055446;28;20193;-90
2022/11/28 05:49:57;;;;;;;9.77;5.70;;;5.10;99.90;;;;;;5055594;28;20535;-91
2022/11/28 05:52:23;;;;;;;10.37;5.97;;;5.20;99.90;;;;;;5055235;28;20556;-89
2022/11/28 05:54:56;;;;;;;7.77;5.27;;;5.10;99.90;;;;;;5054581;28;20256;-89
2022/11/28 05:57:22;;;;;;;10.73;5.63;;;5.10;99.90;;;;;;5055107;28;20263;-91
2022/11/28 05:59:48;;;;;;;7.47;5.20;;;5.10;99.90;;;;;;5055355;28;20174;-91
2022/11/28 06:02:13;;;;;;;8.10;5.10;;;5.10;99.90;;;;;;5055452;28;20170;-92
2022/11/28 06:04:44;;;;;;;12.63;5.37;;;5.10;99.90;;;;;;5055398;28;20170;-91
2022/11/28 06:07:10;;;;;;;6.90;4.80;;;5.10;99.90;;;;;;5055366;28;20212;-89
2022/11/28 06:09:36;;;;;;;7.63;5.30;;;5.10;99.90;;;;;;5055315;28;20174;-92
2022/11/28 06:12:02;;;;;;;8.47;5.07;;;5.10;99.90;;;;;;5055349;28;20257;-91
2022/11/28 06:14:27;;;;;;;8.93;5.23;;;5.10;99.90;;;;;;5055009;28;20608;-90
2022/11/28 06:16:53;;;;;;;7.30;4.77;;;5.10;99.90;;;;;;5055019;28;20197;-91
2022/11/28 06:19:19;;;;;;;7.00;5.30;;;5.10;99.90;;;;;;5054880;28;20173;-82
2022/11/28 06:21:44;;;;;;;7.43;5.17;;;5.10;99.90;;;;;;5054739;28;20185;-90
2022/11/28 06:24:19;;;;;;;8.07;5.27;;;5.10;99.90;;;;;;5054870;28;20223;-92
2022/11/28 06:26:45;;;;;;;7.23;4.87;;;5.10;99.90;;;;;;5054848;28;20172;-91
2022/11/28 06:29:11;;;;;;;8.23;4.87;;;5.10;99.90;;;;;;5054973;28;20174;-90
2022/11/28 06:31:36;;;;;;;8.67;5.50;;;5.10;99.90;;;;;;5054917;28;20184;-91
2022/11/28 06:34:02;;;;;;;6.97;5.20;;;5.00;99.90;;;;;;5054939;28;20174;-91
2022/11/28 06:36:29;;;;;;;8.03;6.00;;;5.10;99.90;;;;;;5054805;28;20158;-92
2022/11/28 06:38:55;;;;;;;7.77;5.30;;;5.10;99.90;;;;;;5054936;28;20524;-93
2022/11/28 06:41:21;;;;;;;8.30;5.60;;;5.00;99.90;;;;;;5054925;28;20174;-92
2022/11/28 06:43:56;;;;;;;8.13;5.03;;;5.00;99.90;;;;;;5035238;28;20221;-92
2022/11/28 06:46:22;;;;;;;8.80;5.53;;;5.00;99.90;;;;;;5017302;28;20178;-89
2022/11/28 06:48:50;;;;;;;7.73;5.33;;;5.00;99.90;;;;;;5032302;28;20268;-91
2022/11/28 06:51:17;;;;;;;9.40;6.03;;;5.00;99.90;;;;;;5051132;28;20210;-87
2022/11/28 07:07:12;;;;;;;7.90;5.77;;;5.00;99.90;;;;;;3019785;28;20382;-89
2022/11/28 07:09:37;;;;;;;9.00;5.73;;;5.00;99.90;;;;;;5037208;28;20285;-90
2022/11/28 07:12:03;;;;;;;8.77;6.20;;;4.90;99.90;;;;;;5037264;28;20189;-90
2022/11/28 07:14:32;;;;;;;9.13;6.70;;;4.90;99.90;;;;;;5035988;28;20174;-90
2022/11/28 07:16:58;;;;;;;7.87;5.53;;;4.90;99.90;;;;;;5049725;28;20199;-91
2022/11/28 07:19:24;;;;;;;10.00;6.40;;;4.90;99.90;;;;;;5057784;28;20223;-93
2022/11/28 07:21:49;;;;;;;9.57;6.80;;;4.90;99.90;;;;;;5057485;28;20291;-89
2022/11/28 07:24:18;;;;;;;10.33;6.20;;;4.90;99.90;;;;;;5057117;28;20178;-91
2022/11/28 07:26:45;;;;;;;11.30;6.20;;;4.90;99.90;;;;;;5056131;28;20178;-91
2022/11/28 07:29:16;;;;;;;9.63;6.67;;;4.90;99.90;;;;;;5057194;28;20170;-93
2022/11/28 07:31:43;;;;;;;10.37;5.83;;;4.90;99.90;;;;;;5057438;28;20311;-92
2022/11/28 07:34:09;;;;;;;7.70;5.63;;;4.90;99.90;;;;;;5057324;28;20170;-91
2022/11/28 07:36:35;;;;;;;8.47;5.70;;;5.00;99.90;;;;;;5056894;28;20608;-93
2022/11/28 07:39:03;;;;;;;11.07;6.23;;;5.00;99.90;;;;;;5057135;28;20170;-91
2022/11/28 07:41:30;;;;;;;9.77;6.37;;;5.00;99.90;;;;;;5057292;28;20170;-93
2022/11/28 07:43:58;;;;;;;9.13;6.07;;;5.00;99.90;;;;;;5057115;28;20174;-91
2022/11/28 07:46:25;;;;;;;10.23;6.33;;;5.10;99.90;;;;;;5040260;28;20178;-89
2022/11/28 07:48:51;;;;;;;10.20;6.57;;;5.00;99.90;;;;;;5037541;28;20163;-89
2022/11/28 07:51:23;;;;;;;8.83;5.80;;;5.00;99.90;;;;;;5037040;28;20902;-89
2022/11/28 07:53:49;;;;;;;10.10;6.90;;;5.00;99.90;;;;;;5054130;28;20289;-89
2022/11/28 07:56:17;;;;;;;9.20;5.93;;;5.10;99.90;;;;;;5056929;28;20174;-89
2022/11/28 07:58:45;;;;;;;10.40;6.43;;;5.10;99.90;;;;;;5056498;28;20201;-91
2022/11/28 08:01:17;;;;;;;9.63;5.73;;;5.10;99.90;;;;;;5039091;28;20261;-90
2022/11/28 08:03:43;;;;;;;9.00;5.83;;;5.10;99.90;;;;;;5056467;28;20181;-88
2022/11/28 08:06:10;;;;;;;9.30;6.20;;;5.10;99.90;;;;;;5056105;28;20178;-89
2022/11/28 08:08:36;;;;;;;9.17;6.07;;;5.10;99.90;;;;;;5044046;28;20317;-87
2022/11/28 08:11:04;;;;;;;9.53;5.90;;;5.10;99.90;;;;;;5035262;28;20712;-88
2022/11/28 08:13:30;;;;;;;8.87;5.90;;;5.20;99.90;;;;;;5036205;28;20288;-89
2022/11/28 08:15:56;;;;;;;7.53;5.80;;;5.10;99.90;;;;;;5036777;28;20273;-89
2022/11/28 08:18:22;;;;;;;8.63;5.97;;;5.20;99.90;;;;;;5035561;28;20218;-85
2022/11/28 08:20:48;;;;;;;9.13;5.60;;;5.20;99.90;;;;;;5036551;28;20182;-90
2022/11/28 08:23:14;;;;;;;7.80;5.57;;;5.20;99.90;;;;;;5036323;28;20681;-90
2022/11/28 08:25:41;;;;;;;11.80;5.83;;;5.30;99.90;;;;;;5018799;28;20205;-90
2022/11/28 08:28:07;;;;;;;8.53;5.70;;;5.30;99.90;;;;;;5036156;28;20250;-86
2022/11/28 08:30:32;;;;;;;8.27;5.50;;;5.30;99.90;;;;;;5035069;28;20273;-87
2022/11/28 08:32:58;;;;;;;10.80;5.57;;;5.30;99.90;;;;;;5056007;28;20170;-88
2022/11/28 08:35:24;;;;;;;9.27;5.80;;;5.30;99.90;;;;;;5055600;28;20170;-92
2022/11/28 08:37:49;;;;;;;8.77;5.97;;;5.30;99.90;;;;;;5054527;28;20288;-89
2022/11/28 08:40:15;;;;;;;7.77;5.47;;;5.30;99.90;;;;;;5029335;28;20266;-89
2022/11/28 08:42:41;;;;;;;10.93;5.87;;;5.30;99.90;;;;;;5045251;28;20162;-89
2022/11/28 08:45:09;;;;;;;10.10;5.83;;;5.30;99.90;;;;;;5028762;28;21069;-89
2022/11/28 08:47:36;;;;;;;9.33;6.13;;;5.40;99.90;;;;;;5053323;28;20232;-89
2022/11/28 08:50:02;;;;;;;9.17;5.63;;;5.40;99.90;;;;;;5055836;28;20178;-89
2022/11/28 08:52:27;;;;;;;11.67;6.23;;;5.40;99.90;;;;;;5055709;28;20174;-89
2022/11/28 08:54:53;;;;;;;9.57;6.00;;;5.30;99.90;;;;;;5055175;28;20220;-86
2022/11/28 08:57:19;;;;;;;9.77;6.20;;;5.40;99.90;;;;;;5037670;28;20220;-91
2022/11/28 08:59:44;;;;;;;9.97;6.17;;;5.30;99.90;;;;;;5037540;28;20181;-88
2022/11/28 09:02:14;;;;;;;9.73;6.00;;;5.40;99.90;;;;;;5055457;28;20177;-88
2022/11/28 09:04:40;;;;;;;9.67;6.07;;;5.30;99.90;;;;;;5055621;28;20244;-90
2022/11/28 09:07:05;;;;;;;8.60;5.93;;;5.30;99.90;;;;;;5054055;28;20305;-90
2022/11/28 09:09:31;;;;;;;11.00;6.10;;;5.30;99.90;;;;;;5036205;28;20190;-89
2022/11/28 09:11:57;;;;;;;8.17;5.17;;;5.30;99.90;;;;;;5034508;28;20194;-90
2022/11/28 09:14:25;;;;;;;10.07;6.50;;;5.30;99.90;;;;;;5033936;28;20189;-86
2022/11/28 09:16:51;;;;;;;21.33;10.70;;;5.30;99.90;;;;;;5035362;28;20214;-92
2022/11/28 09:19:16;;;;;;;13.20;6.50;;;5.30;99.90;;;;;;5035444;28;20174;-91
2022/11/28 09:21:42;;;;;;;11.20;6.87;;;5.30;99.90;;;;;;5035132;28;20171;-89
2022/11/28 09:24:08;;;;;;;13.10;8.90;;;5.30;99.90;;;;;;5017281;28;20183;-89
2022/11/28 09:26:34;;;;;;;11.13;6.60;;;5.30;99.90;;;;;;5035005;28;20174;-93
2022/11/28 09:29:00;;;;;;;9.00;5.87;;;5.40;99.90;;;;;;5033956;28;20170;-90
2022/11/28 09:31:25;;;;;;;10.03;6.80;;;5.30;99.90;;;;;;5017590;28;20190;-90
2022/11/28 09:33:52;;;;;;;10.27;6.57;;;5.30;99.90;;;;;;5034514;28;20170;-90
2022/11/28 09:36:20;;;;;;;11.80;6.07;;;5.40;99.90;;;;;;5034691;28;20175;-89
2022/11/28 09:38:46;;;;;;;9.27;5.90;;;5.40;99.90;;;;;;5017250;28;20656;-89
2022/11/28 09:41:27;;;;;;;11.53;6.13;;;5.30;99.90;;;;;;5034783;28;20667;-92
2022/11/28 09:43:57;;;;;;;11.87;6.10;;;5.40;99.90;;;;;;5016808;28;20233;-89
2022/11/28 09:46:28;;;;;;;9.83;5.87;;;5.30;99.90;;;;;;5034895;28;20202;-91
2022/11/28 09:48:59;;;;;;;11.43;6.03;;;5.40;99.90;;;;;;5034970;28;20672;-90
2022/11/28 09:51:32;;;;;;;9.87;6.47;;;5.30;99.90;;;;;;5017389;28;20506;-90
2022/11/28 09:54:12;;;;;;;11.33;6.13;;;5.30;99.90;;;;;;5034277;28;20171;-89
2022/11/28 09:56:38;;;;;;;12.07;6.23;;;5.40;99.90;;;;;;5016677;28;20178;-89
2022/11/28 09:59:24;;;;;;;11.10;6.40;;;5.40;99.90;;;;;;5034068;28;20191;-86
2022/11/28 10:02:01;;;;;;;9.97;6.10;;;5.40;99.90;;;;;;5034559;28;20167;-89
2022/11/28 10:04:35;;;;;;;9.23;5.80;;;5.40;99.90;;;;;;5034444;28;20178;-91
2022/11/28 10:07:03;;;;;;;10.73;6.37;;;5.40;99.90;;;;;;5034331;28;20166;-90
2022/11/28 10:09:47;;;;;;;10.63;5.80;;;5.40;99.90;;;;;;5033480;28;20182;-91
2022/11/28 10:12:36;;;;;;;10.07;6.50;;;5.40;99.90;;;;;;5034519;28;20171;-88
2022/11/28 10:15:17;;;;;;;9.13;5.97;;;5.40;99.90;;;;;;5034703;28;20273;-92
2022/11/28 10:18:11;;;;;;;7.67;5.77;;;5.40;99.90;;;;;;5034236;28;20205;-90
2022/11/28 10:20:41;;;;;;;12.23;5.90;;;5.40;99.90;;;;;;5034361;28;20504;-90
2022/11/28 10:23:15;;;;;;;8.67;6.10;;;5.40;99.90;;;;;;5034398;28;20170;-92
2022/11/28 10:25:48;;;;;;;10.30;6.13;;;5.50;99.90;;;;;;5034018;28;20174;-91
2022/11/28 10:28:18;;;;;;;10.47;6.03;;;5.50;99.90;;;;;;5034452;28;20585;-89
2022/11/28 10:30:53;;;;;;;10.87;5.80;;;5.60;99.90;;;;;;5034499;28;20163;-91
2022/11/28 10:33:30;;;;;;;11.03;5.43;;;5.60;99.90;;;;;;5034125;28;20165;-91
2022/11/28 10:36:01;;;;;;;10.97;5.90;;;5.60;99.90;;;;;;5034263;28;20166;-91
2022/11/28 10:38:31;;;;;;;10.77;6.17;;;5.60;99.90;;;;;;5034330;28;20692;-91
2022/11/28 10:41:27;;;;;;;10.20;5.93;;;5.70;99.90;;;;;;5034857;28;20617;-91
2022/11/28 10:43:59;;;;;;;9.30;6.30;;;5.70;99.90;;;;;;5021091;28;20240;-92
2022/11/28 10:46:37;;;;;;;11.10;6.00;;;5.70;99.90;;;;;;5038427;28;20166;-91
2022/11/28 10:49:32;;;;;;;10.07;5.90;;;5.80;99.90;;;;;;5038570;28;20216;-90
2022/11/28 10:52:20;;;;;;;9.67;6.00;;;5.80;99.90;;;;;;5038498;28;20171;-91
2022/11/28 10:55:11;;;;;;;8.60;5.57;;;5.90;99.90;;;;;;5038014;28;20261;-90
2022/11/28 10:58:17;;;;;;;8.87;5.90;;;5.90;99.90;;;;;;5038065;28;20190;-92
2022/11/28 11:00:47;;;;;;;9.70;6.40;;;5.90;99.90;;;;;;5038009;28;20171;-91
2022/11/28 11:03:16;;;;;;;10.33;6.30;;;5.90;99.90;;;;;;5038187;28;20175;-91
2022/11/28 11:05:42;;;;;;;10.33;6.00;;;6.00;99.90;;;;;;5037934;28;20266;-88
2022/11/28 11:08:07;;;;;;;9.67;6.30;;;6.00;99.90;;;;;;5038018;28;20630;-92
2022/11/28 11:10:41;;;;;;;10.10;5.87;;;6.00;99.90;;;;;;5021604;28;20187;-90
2022/11/28 11:13:28;;;;;;;11.30;5.90;;;6.00;99.90;;;;;;5036747;28;20195;-88
2022/11/28 11:16:09;;;;;;;8.63;5.50;;;6.00;99.90;;;;;;5039787;28;20181;-93
2022/11/28 11:18:49;;;;;;;12.90;6.03;;;6.10;99.90;;;;;;5057593;28;20201;-81
2022/11/28 11:21:20;;;;;;;8.80;5.90;;;6.10;99.90;;;;;;5039438;28;20177;-85
2022/11/28 11:23:48;;;;;;;11.97;5.97;;;6.10;99.90;;;;;;5026303;28;20174;-82
2022/11/28 11:26:26;;;;;;;8.83;5.43;;;6.10;99.90;;;;;;5056984;28;20174;-92
2022/11/28 11:28:52;;;;;;;12.87;6.27;;;6.10;99.90;;;;;;5057581;28;20166;-91
2022/11/28 11:31:30;;;;;;;11.40;6.10;;;6.10;99.90;;;;;;5057272;28;20181;-90
2022/11/28 11:34:05;;;;;;;9.03;5.90;;;6.00;99.90;;;;;;5057116;28;20594;-91
2022/11/28 11:36:36;;;;;;;10.87;6.20;;;6.00;99.90;;;;;;5056867;28;20506;-92
2022/11/28 11:39:17;;;;;;;10.60;5.93;;;6.10;99.90;;;;;;5053614;28;20236;-93
2022/11/28 11:42:09;;;;;;;11.13;6.17;;;6.10;99.90;;;;;;5037688;28;20253;-91
2022/11/28 11:44:35;;;;;;;10.00;5.90;;;6.10;99.90;;;;;;5039259;28;20202;-85
2022/11/28 11:47:02;;;;;;;9.33;5.60;;;6.10;99.90;;;;;;5055161;28;20205;-89
2022/11/28 11:49:30;;;;;;;9.40;5.70;;;6.10;99.90;;;;;;5040868;28;20177;-92
2022/11/28 11:52:02;;;;;;;8.47;5.43;;;6.10;99.90;;;;;;5052567;28;20174;-89
2022/11/28 11:54:29;;;;;;;10.27;6.33;;;6.10;99.90;;;;;;5042744;28;20178;-91
2022/11/28 11:56:57;;;;;;;10.27;6.10;;;6.10;99.90;;;;;;5056462;28;20232;-91
2022/11/28 11:59:25;;;;;;;7.80;5.63;;;6.10;99.90;;;;;;5039463;28;20245;-91
2022/11/28 12:01:57;;;;;;;9.77;5.63;;;6.10;99.90;;;;;;5036949;28;20159;-90
2022/11/28 12:04:43;;;;;;;8.03;5.47;;;6.20;99.90;;;;;;5036807;28;20178;-90
2022/11/28 12:07:27;;;;;;;17.17;6.23;;;6.10;99.90;;;;;;5036550;28;20273;-91
2022/11/28 12:09:55;;;;;;;11.17;6.10;;;6.10;99.90;;;;;;5018777;28;20281;-94
2022/11/28 12:12:28;;;;;;;13.80;6.80;;;6.10;99.90;;;;;;5036678;28;20166;-91
2022/11/28 12:14:54;;;;;;;8.40;5.93;;;6.10;99.90;;;;;;5036522;28;20490;-93
2022/11/28 12:17:38;;;;;;;10.20;5.80;;;6.10;99.90;;;;;;5018716;28;20251;-92
2022/11/28 12:20:37;;;;;;;10.63;6.20;;;6.10;99.90;;;;;;5018567;28;20186;-92
2022/11/28 12:23:11;;;;;;;10.77;5.83;;;6.20;99.90;;;;;;5036450;28;20254;-90
2022/11/28 12:26:00;;;;;;;12.90;6.40;;;6.20;99.90;;;;;;5036380;28;20177;-92
2022/11/28 12:28:41;;;;;;;10.20;6.17;;;6.20;99.90;;;;;;5045781;28;20224;-92
2022/11/28 12:31:40;;;;;;;10.03;6.57;;;6.20;99.90;;;;;;5056272;28;20195;-91
2022/11/28 12:34:12;;;;;;;10.53;6.27;;;6.20;99.90;;;;;;5055886;28;20593;-91
2022/11/28 12:36:50;;;;;;;9.43;5.80;;;6.20;99.90;;;;;;5037660;28;20695;-93
2022/11/28 12:39:17;;;;;;;10.03;6.20;;;6.20;99.90;;;;;;5036285;28;20189;-91
2022/11/28 12:41:51;;;;;;;10.37;5.70;;;6.20;99.90;;;;;;5023574;28;20183;-90
2022/11/28 12:44:42;;;;;;;10.70;6.43;;;6.20;99.90;;;;;;5031098;28;20175;-92
2022/11/28 12:47:38;;;;;;;9.10;5.70;;;6.20;99.90;;;;;;5036216;28;20205;-82
2022/11/28 12:50:10;;;;;;;10.13;6.00;;;6.20;99.90;;;;;;5055763;28;20173;-91
2022/11/28 12:52:54;;;;;;;8.80;5.87;;;6.20;99.90;;;;;;5055734;28;20169;-92
2022/11/28 12:55:50;;;;;;;10.30;5.70;;;6.20;99.90;;;;;;5055184;28;20604;-91
2022/11/28 12:58:20;;;;;;;13.47;5.63;;;6.10;99.90;;;;;;5055785;28;20200;-90
2022/11/28 13:00:54;;;;;;;9.90;5.87;;;6.20;99.90;;;;;;5018404;28;20260;-90
2022/11/28 13:03:40;;;;;;;10.97;6.73;;;6.20;99.90;;;;;;5035218;28;20170;-90
2022/11/28 13:06:51;;;;;;;9.37;5.83;;;6.20;99.90;;;;;;5018277;28;20221;-90
2022/11/28 13:09:19;;;;;;;9.50;5.90;;;6.30;99.90;;;;;;5011244;28;20210;-92
2022/11/28 13:12:13;;;;;;;10.60;5.17;;;6.30;99.90;;;;;;5035168;28;20171;-92
2022/11/28 13:14:51;;;;;;;10.60;6.37;;;6.30;99.90;;;;;;5043815;28;20178;-89
2022/11/28 13:17:35;;;;;;;10.13;6.00;;;6.20;99.90;;;;;;5043847;28;20245;-88
2022/11/28 13:20:24;;;;;;;9.00;5.70;;;6.20;99.90;;;;;;5035146;28;20605;-89
2022/11/28 13:23:20;;;;;;;9.50;5.70;;;6.20;99.90;;;;;;5034922;28;20190;-92
2022/11/28 13:25:49;;;;;;;9.63;5.27;;;6.20;99.90;;;;;;5034814;28;20598;-89
2022/11/28 13:28:43;;;;;;;10.77;6.00;;;6.20;99.90;;;;;;5034593;28;20618;-79
2022/11/28 13:31:33;;;;;;;11.20;5.97;;;6.20;99.90;;;;;;5034970;28;20167;-86
2022/11/28 13:33:59;;;;;;;9.57;5.73;;;6.20;99.90;;;;;;5035351;28;20166;-86
2022/11/28 13:36:41;;;;;;;9.50;5.60;;;6.20;99.90;;;;;;5035136;28;20170;-92
2022/11/28 13:39:35;;;;;;;8.93;6.00;;;6.20;99.90;;;;;;5035434;28;20272;-91